createdAt,value
2022-12-27T08:53:15.168Z,99314.59
2022-12-27T08:55:52.227Z,99314.91
2022-12-27T08:58:32.060Z,99322.59
2022-12-27T09:01:25.777Z,99321.81
2022-12-27T09:03:56.777Z,99322.31
2022-12-27T09:09:20.919Z,99318.47
2022-12-27T09:11:49.564Z,99323.75
2022-12-27T09:14:21.313Z,99339.19
2022-12-27T09:16:53.713Z,99330.28
2022-12-27T09:19:29.876Z,99330.81
2022-12-27T09:22:05.650Z,99328.38
2022-12-27T09:24:47.487Z,99321.78
2022-12-27T09:27:24.551Z,99321.88
2022-12-27T09:29:56.142Z,99322.41
2022-12-27T09:32:28.459Z,99325.56
2022-12-27T09:34:59.495Z,99328.91
2022-12-27T09:37:43.369Z,99311.06
2022-12-27T09:40:34.497Z,99321.72
2022-12-27T09:43:27.555Z,99319.53
2022-12-27T09:46:05.034Z,99325.47
2022-12-27T09:48:39.508Z,99322.09
2022-12-27T09:52:03.848Z,99307.22
2022-12-27T09:55:18.476Z,99318.91
2022-12-27T09:57:54.277Z,99319.72
2022-12-27T10:00:36.516Z,99324.38
2022-12-27T10:03:10.627Z,99335.53
2022-12-27T10:09:01.600Z,99326.56
2022-12-27T10:11:50.835Z,99323.50
2022-12-27T10:18:27.070Z,99319.69
2022-12-27T10:21:18.433Z,99323.50
2022-12-27T10:23:53.163Z,99323.06
2022-12-27T10:26:24.343Z,99319.53
2022-12-27T10:29:06.246Z,99314.53
2022-12-27T10:32:04.833Z,99316.41
2022-12-27T10:34:35.609Z,99319.41
2022-12-27T10:37:09.125Z,99319.06
2022-12-27T10:39:48.002Z,99318.47
2022-12-27T10:42:45.659Z,99315.09
2022-12-27T10:45:48.851Z,99311.66
2022-12-27T10:51:36.949Z,99298.75
2022-12-27T10:54:15.242Z,99300.75
2022-12-27T10:56:54.529Z,99294.41
2022-12-27T10:59:31.209Z,99285.25
2022-12-27T11:02:12.585Z,99281.22
2022-12-27T11:05:02.235Z,99284.50
2022-12-27T11:07:35.881Z,99284.63
2022-12-27T11:10:24.149Z,99284.00
2022-12-27T11:13:36.207Z,99282.94
2022-12-27T11:16:17.264Z,99277.56
2022-12-27T11:19:00.038Z,99281.06
2022-12-27T11:21:40.834Z,99275.06
2022-12-27T11:24:20.249Z,99279.06
2022-12-27T11:26:58.312Z,99284.19
2022-12-27T11:29:37.473Z,99279.31
2022-12-27T11:32:24.687Z,99278.03
2022-12-27T11:35:05.149Z,99272.09
2022-12-27T11:37:39.224Z,99280.44
2022-12-27T11:40:48.610Z,99277.13
2022-12-27T11:43:25.736Z,99280.19
2022-12-27T11:46:04.592Z,99281.91
2022-12-27T11:48:43.777Z,99276.97
2022-12-27T11:51:55.158Z,99279.38
2022-12-27T11:55:00.603Z,99272.53
2022-12-27T11:57:49.502Z,99274.03
2022-12-27T12:00:30.323Z,99264.00
2022-12-27T12:03:26.656Z,99278.31
2022-12-27T12:06:48.105Z,99274.50
2022-12-27T12:10:05.812Z,99284.00
2022-12-27T12:13:04.425Z,99284.22
2022-12-27T12:15:57.387Z,99289.28
2022-12-27T12:18:55.766Z,99296.00
2022-12-27T12:22:14.257Z,99289.03
2022-12-27T12:25:13.862Z,99298.47
2022-12-27T12:28:07.017Z,99288.34
2022-12-27T12:31:18.581Z,99288.88
2022-12-27T12:34:20.287Z,99302.66
2022-12-27T12:37:18.071Z,99314.13
2022-12-27T12:40:22.099Z,99324.16
2022-12-27T12:43:49.661Z,99343.28
2022-12-27T12:46:57.211Z,99333.50
2022-12-27T12:50:01.109Z,99326.81
2022-12-27T12:53:00.204Z,99334.25
2022-12-27T12:56:11.664Z,99329.84
2022-12-27T12:59:08.211Z,99337.31
2022-12-27T13:02:13.041Z,99349.25
2022-12-27T13:05:09.012Z,99348.41
2022-12-27T13:08:17.653Z,99351.75
2022-12-27T13:11:10.520Z,99341.47
2022-12-27T13:13:58.938Z,99353.09
2022-12-27T13:17:09.872Z,99348.28
2022-12-27T13:20:22.549Z,99347.34
2022-12-27T13:23:20.991Z,99343.44
2022-12-27T13:26:42.519Z,99349.75
2022-12-27T13:29:37.907Z,99347.88
2022-12-27T13:32:41.787Z,99351.81
2022-12-27T13:35:46.380Z,99349.59
2022-12-27T13:38:44.740Z,99350.66
2022-12-27T13:41:30.531Z,99352.84
2022-12-27T13:44:39.068Z,99360.66
2022-12-27T13:48:24.007Z,99366.81
2022-12-27T13:51:34.175Z,99367.09
2022-12-27T13:54:24.959Z,99379.00
2022-12-27T13:57:30.287Z,99373.19
2022-12-27T14:00:14.718Z,99387.84
2022-12-27T14:06:36.563Z,99382.50
2022-12-27T14:09:40.935Z,99389.41
2022-12-27T14:12:30.509Z,99392.44
2022-12-27T14:15:03.758Z,99391.59
2022-12-27T14:18:03.341Z,99391.31
2022-12-27T14:20:56.201Z,99396.63
2022-12-27T14:23:53.512Z,99397.53
2022-12-27T14:27:01.893Z,99395.06
2022-12-27T14:30:10.336Z,99381.28
2022-12-27T14:33:11.228Z,99397.94
2022-12-27T14:36:18.693Z,99386.53
2022-12-27T14:39:22.337Z,99389.34
2022-12-27T14:42:51.503Z,99402.63
2022-12-27T14:45:57.181Z,99407.63
2022-12-27T14:49:12.169Z,99405.72
2022-12-27T14:52:08.574Z,99401.84
2022-12-27T14:55:20.214Z,99414.31
2022-12-27T14:58:28.208Z,99423.47
2022-12-27T15:01:26.686Z,99414.88
2022-12-27T15:04:03.065Z,99433.47
2022-12-27T15:07:13.314Z,99436.47
2022-12-27T15:09:59.815Z,99441.22
2022-12-27T15:12:58.593Z,99438.19
2022-12-27T15:16:10.170Z,99442.63
2022-12-27T15:18:56.797Z,99442.09
2022-12-27T15:22:04.311Z,99443.44
2022-12-27T15:24:53.747Z,99442.41
2022-12-27T15:28:19.885Z,99452.06
2022-12-27T15:31:03.845Z,99462.03
2022-12-27T15:34:13.502Z,99468.09
2022-12-27T15:37:04.566Z,99472.53
2022-12-27T15:39:46.976Z,99480.03
2022-12-27T15:42:17.661Z,99483.88
2022-12-27T15:45:24.012Z,99486.06
2022-12-27T15:48:33.039Z,99490.53
2022-12-27T15:51:34.666Z,99491.06
2022-12-27T15:54:37.452Z,99491.63
2022-12-27T15:57:44.518Z,99493.00
2022-12-27T16:00:34.283Z,99502.97
2022-12-27T16:07:03.920Z,99500.75
2022-12-27T16:09:42.820Z,99514.84
2022-12-27T16:12:14.836Z,99513.47
2022-12-27T16:14:50.460Z,99509.59
2022-12-27T16:17:57.653Z,99531.38
2022-12-27T16:20:31.780Z,99532.75
2022-12-27T16:23:08.266Z,99539.63
2022-12-27T16:25:48.447Z,99541.59
2022-12-27T16:28:20.249Z,99554.00
2022-12-27T16:31:11.840Z,99564.16
2022-12-27T16:33:43.789Z,99562.00
2022-12-27T16:36:34.836Z,99562.84
2022-12-27T16:39:33.799Z,99559.53
2022-12-27T16:42:11.466Z,99562.28
2022-12-27T16:45:08.087Z,99563.63
2022-12-27T16:48:15.551Z,99565.88
2022-12-27T16:51:18.374Z,99558.38
2022-12-27T16:54:29.401Z,99559.22
2022-12-27T16:57:44.556Z,99560.03
2022-12-27T17:00:46.611Z,99562.25
2022-12-27T17:03:47.823Z,99560.59
2022-12-27T17:06:35.023Z,99563.34
2022-12-27T17:09:22.067Z,99562.44
2022-12-27T17:12:04.950Z,99564.69
2022-12-27T17:14:41.749Z,99535.97
2022-12-27T17:17:26.382Z,99571.06
2022-12-27T17:20:18.784Z,99574.38
2022-12-27T17:22:48.608Z,99573.00
2022-12-27T17:25:25.548Z,99577.13
2022-12-27T17:28:21.198Z,99569.69
2022-12-27T17:31:46.134Z,99561.19
2022-12-27T17:34:53.876Z,99567.25
2022-12-27T17:37:34.787Z,99575.53
2022-12-27T17:40:35.047Z,99569.50
2022-12-27T17:43:32.536Z,99581.34
2022-12-27T17:46:30.978Z,99594.31
2022-12-27T17:49:06.548Z,99595.13
2022-12-27T17:51:53.767Z,99596.81
2022-12-27T17:57:58.233Z,99579.66
2022-12-27T18:00:33.520Z,99605.91
2022-12-27T18:03:15.036Z,99602.59
2022-12-27T18:05:50.144Z,99602.78
2022-12-27T18:08:42.399Z,99603.34
2022-12-27T18:11:14.776Z,99604.19
2022-12-27T18:14:01.652Z,99613.56
2022-12-27T18:16:45.707Z,99611.63
2022-12-27T18:19:29.423Z,99605.28
2022-12-27T18:22:03.736Z,99609.91
2022-12-27T18:24:34.898Z,99603.53
2022-12-27T18:27:24.038Z,99612.72
2022-12-27T18:30:10.030Z,99612.44
2022-12-27T18:32:48.340Z,99619.56
2022-12-27T18:35:27.736Z,99618.22
2022-12-27T18:38:00.944Z,99616.84
2022-12-27T18:40:30.257Z,99616.56
2022-12-27T18:43:14.539Z,99623.47
2022-12-27T18:45:51.867Z,99619.59
2022-12-27T18:48:22.252Z,99626.72
2022-12-27T18:50:59.808Z,99617.88
2022-12-27T18:53:41.706Z,99628.09
2022-12-27T18:56:18.662Z,99636.06
2022-12-27T18:59:29.014Z,99628.09
2022-12-27T19:02:05.964Z,99630.00
2022-12-27T19:04:34.781Z,99635.53
2022-12-27T19:07:14.032Z,99641.56
2022-12-27T19:09:53.447Z,99641.28
2022-12-27T21:54:30.155Z,99703.03
2022-12-27T22:00:40.483Z,99715.19
2022-12-27T22:12:49.986Z,99704.38
2022-12-27T22:18:59.628Z,99729.72
2022-12-27T22:21:37.452Z,99725.34
2022-12-27T22:24:20.097Z,99732.94
2022-12-27T22:27:06.635Z,99729.59
2022-12-27T22:42:21.299Z,99699.28
2022-12-27T22:44:52.426Z,99707.63
2022-12-27T22:58:54.646Z,99675.50
2022-12-27T23:13:07.359Z,99672.00
2022-12-27T23:25:00.608Z,99620.56
2022-12-27T23:30:35.239Z,99644.38
2022-12-27T23:44:44.003Z,99645.22
